createdAt,value
2023-04-11T00:01:09.412Z,0
2023-04-11T00:04:34.673Z,0
2023-04-11T00:07:59.862Z,0
2023-04-11T00:11:25.050Z,0
2023-04-11T00:14:50.220Z,0
2023-04-11T00:18:15.408Z,0
2023-04-11T00:21:40.588Z,0
2023-04-11T00:25:05.816Z,0
2023-04-11T00:28:30.984Z,0
2023-04-11T00:31:56.253Z,0
2023-04-11T00:35:21.417Z,0
2023-04-11T00:38:46.637Z,0
2023-04-11T00:42:11.813Z,0
2023-04-11T00:45:37.055Z,0
2023-04-11T00:49:02.249Z,0
2023-04-11T00:52:27.439Z,0
2023-04-11T00:55:52.604Z,0
2023-04-11T00:59:17.778Z,0
2023-04-11T01:02:43.182Z,0
2023-04-11T01:06:08.186Z,0
2023-04-11T01:09:33.362Z,0
2023-04-11T01:12:58.536Z,0
2023-04-11T01:16:23.747Z,0
2023-04-11T01:19:48.890Z,0
2023-04-11T01:23:14.098Z,0
2023-04-11T01:26:39.314Z,0
2023-04-11T01:30:04.504Z,0
2023-04-11T01:33:29.675Z,0
2023-04-11T01:36:54.855Z,0
2023-04-11T01:40:21.822Z,0
2023-04-11T01:43:47.033Z,0
2023-04-11T01:47:12.223Z,0
2023-04-11T01:50:37.425Z,0
2023-04-11T01:54:02.602Z,0
2023-04-11T01:57:27.841Z,0
2023-04-11T02:00:52.985Z,0
2023-04-11T02:04:18.372Z,0
2023-04-11T02:07:43.347Z,0
2023-04-11T02:11:08.519Z,0
2023-04-11T02:14:33.764Z,0
2023-04-11T02:17:58.941Z,0
2023-04-11T02:21:24.109Z,0
2023-04-11T02:24:49.250Z,0
2023-04-11T02:28:14.439Z,0
2023-04-11T02:31:39.745Z,0
2023-04-11T02:35:04.862Z,0
2023-04-11T02:38:30.054Z,0
2023-04-11T02:41:55.243Z,0
2023-04-11T02:45:20.448Z,0
2023-04-11T02:48:45.705Z,0
2023-04-11T02:52:10.954Z,0
2023-04-11T02:55:36.249Z,0
2023-04-11T02:59:01.491Z,0
2023-04-11T03:02:26.805Z,0
2023-04-11T03:05:51.952Z,0
2023-04-11T03:09:17.137Z,0
2023-04-11T03:12:42.348Z,0
2023-04-11T03:16:07.719Z,0
2023-04-11T03:19:32.884Z,0
2023-04-11T03:22:58.132Z,0
2023-04-11T03:26:23.340Z,0
2023-04-11T03:29:48.542Z,0
2023-04-11T03:33:13.778Z,0
2023-04-11T03:36:38.998Z,0
2023-04-11T03:40:04.292Z,0
2023-04-11T03:43:29.458Z,0
2023-04-11T03:46:54.745Z,0
2023-04-11T03:50:20.005Z,0
2023-04-11T03:53:45.250Z,0
2023-04-11T03:57:10.548Z,0
2023-04-11T04:00:35.730Z,0
2023-04-11T04:04:01.379Z,0
2023-04-11T04:07:26.217Z,0
2023-04-11T04:10:51.448Z,0
2023-04-11T04:14:16.672Z,0
2023-04-11T04:17:42.035Z,0
2023-04-11T04:21:07.076Z,0
2023-04-11T04:24:32.357Z,0
2023-04-11T04:27:57.570Z,0
2023-04-11T04:31:22.820Z,0
2023-04-11T04:34:47.974Z,0
2023-04-11T04:38:13.160Z,0
2023-04-11T04:41:38.372Z,0
2023-04-11T04:45:03.577Z,0
2023-04-11T04:48:28.773Z,0
2023-04-11T04:51:53.926Z,0
2023-04-11T04:55:19.141Z,0
2023-04-11T04:58:44.303Z,0
2023-04-11T05:02:09.563Z,0
2023-04-11T05:05:34.687Z,0
2023-04-11T05:08:59.857Z,0
2023-04-11T05:12:25.031Z,0
2023-04-11T05:15:50.201Z,0
2023-04-11T05:19:15.340Z,0
2023-04-11T05:22:40.573Z,0
2023-04-11T05:26:05.728Z,0
2023-04-11T05:29:30.917Z,0
2023-04-11T05:32:56.134Z,0
2023-04-11T05:36:21.278Z,0
2023-04-11T05:39:46.465Z,0
2023-04-11T05:43:11.699Z,0
2023-04-11T05:46:38.392Z,0
2023-04-11T05:50:03.514Z,0
2023-04-11T05:53:28.793Z,0
2023-04-11T05:56:54.028Z,0
2023-04-11T06:00:19.265Z,0
2023-04-11T06:03:44.592Z,0
2023-04-11T06:07:09.681Z,0
2023-04-11T06:10:34.876Z,0
2023-04-11T06:14:00.173Z,0
2023-04-11T06:17:25.346Z,0
2023-04-11T06:20:50.578Z,0
2023-04-11T06:24:15.800Z,0
2023-04-11T06:27:41.001Z,0
2023-04-11T06:31:06.335Z,0
2023-04-11T06:34:31.476Z,0
2023-04-11T06:37:56.688Z,0
2023-04-11T06:41:21.914Z,6
2023-04-11T06:44:47.127Z,6
2023-04-11T06:48:12.647Z,6
2023-04-11T06:51:37.720Z,6
2023-04-11T06:55:02.947Z,6
2023-04-11T06:58:28.167Z,6
2023-04-11T07:01:53.403Z,6
2023-04-11T07:05:18.631Z,6
2023-04-11T07:08:44.058Z,6
2023-04-11T07:12:09.281Z,11
2023-04-11T07:15:34.549Z,11
2023-04-11T07:18:59.720Z,6
2023-04-11T07:22:25.030Z,6
2023-04-11T07:25:56.582Z,6
2023-04-11T07:29:21.859Z,6
2023-04-11T07:32:47.157Z,11
2023-04-11T07:36:12.323Z,11
2023-04-11T07:39:37.620Z,11
2023-04-11T07:43:02.860Z,17
2023-04-11T07:46:28.106Z,17
2023-04-11T07:49:53.313Z,45
2023-04-11T07:53:18.529Z,51
2023-04-11T07:56:43.803Z,34
2023-04-11T08:00:10.903Z,39
2023-04-11T08:03:34.280Z,23
2023-04-11T08:06:59.413Z,28
2023-04-11T08:10:24.744Z,51
2023-04-11T08:13:50.115Z,51
2023-04-11T08:17:25.425Z,51
2023-04-11T08:20:40.544Z,51
2023-04-11T08:24:05.761Z,45
2023-04-11T08:27:30.997Z,56
2023-04-11T08:30:56.225Z,45
2023-04-11T08:34:21.459Z,51
2023-04-11T08:37:46.740Z,45
2023-04-11T08:41:11.992Z,45
2023-04-11T08:44:37.190Z,51
2023-04-11T08:48:02.532Z,34
2023-04-11T08:51:27.707Z,45
2023-04-11T08:54:52.925Z,45
2023-04-11T08:58:18.222Z,28
2023-04-11T09:01:43.450Z,28
2023-04-11T09:05:08.736Z,39
2023-04-11T09:08:33.847Z,79
2023-04-11T09:11:59.073Z,62
2023-04-11T09:15:24.298Z,23
2023-04-11T09:18:49.529Z,11
2023-04-11T09:22:14.822Z,11
2023-04-11T09:25:40.048Z,17
2023-04-11T09:29:05.262Z,23
2023-04-11T09:32:31.353Z,23
2023-04-11T09:35:56.501Z,51
2023-04-11T09:39:21.717Z,68
2023-04-11T09:42:46.899Z,34
2023-04-11T09:46:12.178Z,62
2023-04-11T09:49:37.297Z,62
2023-04-11T09:53:02.515Z,73
2023-04-11T09:56:27.777Z,56
2023-04-11T09:59:52.930Z,79
2023-04-11T10:03:18.272Z,23
2023-04-11T10:06:43.375Z,28
2023-04-11T10:10:08.574Z,23
2023-04-11T10:13:33.819Z,84
2023-04-11T10:16:59.010Z,28
2023-04-11T10:20:24.206Z,39
2023-04-11T10:23:49.402Z,79
2023-04-11T10:27:14.596Z,45
2023-04-11T10:30:39.862Z,84
2023-04-11T10:34:13.968Z,56
2023-04-11T10:37:38.820Z,79
2023-04-11T10:41:04.023Z,107
2023-04-11T10:44:29.224Z,34
2023-04-11T10:47:54.664Z,51
2023-04-11T10:51:45.683Z,23
2023-04-11T10:55:22.720Z,17
2023-04-11T10:58:47.876Z,11
2023-04-11T11:02:13.409Z,6
2023-04-11T11:05:39.365Z,6
2023-04-11T11:09:03.861Z,11
2023-04-11T11:12:29.099Z,11
2023-04-11T11:15:54.321Z,34
2023-04-11T11:19:19.526Z,79
2023-04-11T11:22:44.770Z,79
2023-04-11T11:26:09.975Z,68
2023-04-11T11:29:35.176Z,45
2023-04-11T11:33:00.433Z,34
2023-04-11T11:36:25.621Z,45
2023-04-11T11:39:50.856Z,28
2023-04-11T11:43:16.017Z,28
2023-04-11T11:46:41.247Z,34
2023-04-11T11:50:06.456Z,45
2023-04-11T11:53:31.747Z,79
2023-04-11T11:56:57.196Z,62
2023-04-11T12:00:22.289Z,56
2023-04-11T12:03:47.627Z,45
2023-04-11T12:07:12.724Z,90
2023-04-11T12:10:37.919Z,23
2023-04-11T12:14:03.176Z,56
2023-04-11T12:17:28.409Z,39
2023-04-11T12:20:53.582Z,39
2023-04-11T12:24:18.786Z,45
2023-04-11T12:27:43.951Z,51
2023-04-11T12:31:09.256Z,84
2023-04-11T12:34:34.324Z,73
2023-04-11T12:37:59.511Z,68
2023-04-11T12:41:32.039Z,56
2023-04-11T12:44:49.892Z,45
2023-04-11T12:48:15.263Z,45
2023-04-11T12:51:40.339Z,51
2023-04-11T12:55:05.526Z,51
2023-04-11T12:58:30.744Z,51
2023-04-11T13:01:56.095Z,56
2023-04-11T13:05:21.430Z,68
2023-04-11T13:08:46.395Z,73
2023-04-11T13:12:11.628Z,68
2023-04-11T13:15:36.785Z,68
2023-04-11T13:19:01.974Z,34
2023-04-11T13:22:27.196Z,23
2023-04-11T13:25:52.378Z,62
2023-04-11T13:29:17.545Z,62
2023-04-11T13:32:42.760Z,62
2023-04-11T13:36:07.904Z,56
2023-04-11T13:39:33.196Z,17
2023-04-11T13:42:58.243Z,23
2023-04-11T13:46:23.442Z,34
2023-04-11T13:49:48.622Z,28
2023-04-11T13:53:13.796Z,28
2023-04-11T13:56:39.021Z,51
2023-04-11T14:00:04.282Z,34
2023-04-11T14:03:29.577Z,28
2023-04-11T14:06:54.734Z,28
2023-04-11T14:10:19.959Z,28
2023-04-11T14:13:45.217Z,17
2023-04-11T14:17:10.448Z,11
2023-04-11T14:20:35.645Z,6
2023-04-11T14:24:00.853Z,11
2023-04-11T14:27:26.113Z,11
2023-04-11T14:30:51.415Z,23
2023-04-11T14:34:16.586Z,28
2023-04-11T14:37:41.847Z,28
2023-04-11T14:41:07.050Z,39
2023-04-11T14:44:32.263Z,34
2023-04-11T14:47:57.541Z,28
2023-04-11T14:51:22.695Z,17
2023-04-11T14:54:47.906Z,17
2023-04-11T14:58:13.159Z,6
2023-04-11T15:01:38.391Z,6
2023-04-11T15:05:03.620Z,11
2023-04-11T15:41:58.102Z,11
2023-04-11T15:45:23.318Z,23
2023-04-11T15:48:48.540Z,6
2023-04-11T15:52:13.764Z,6
2023-04-11T15:55:38.959Z,23
2023-04-11T15:59:04.219Z,23
2023-04-11T16:02:29.516Z,23
2023-04-11T16:05:54.635Z,23
2023-04-11T16:09:19.883Z,23
2023-04-11T16:12:45.095Z,23
2023-04-11T16:16:10.411Z,23
2023-04-11T16:19:35.661Z,11
2023-04-11T16:23:00.864Z,11
2023-04-11T16:26:26.152Z,11
2023-04-11T16:29:51.421Z,6
2023-04-11T16:33:16.715Z,0
2023-04-11T16:36:41.944Z,0
2023-04-11T16:40:07.153Z,0
2023-04-11T16:43:32.406Z,0
2023-04-11T16:46:57.636Z,11
2023-04-11T16:50:22.899Z,11
2023-04-11T16:53:48.141Z,17
2023-04-11T16:57:13.358Z,11
2023-04-11T17:00:38.530Z,6
2023-04-11T17:04:03.843Z,6
2023-04-11T17:07:29.066Z,0
2023-04-11T17:10:54.348Z,0
2023-04-11T17:14:19.598Z,0
2023-04-11T17:17:44.844Z,0
2023-04-11T17:21:10.098Z,0
2023-04-11T17:24:35.377Z,0
2023-04-11T17:28:00.674Z,0
2023-04-11T17:31:26.023Z,0
2023-04-11T17:34:51.326Z,0
2023-04-11T17:38:17.895Z,0
2023-04-11T17:41:42.024Z,0
2023-04-11T17:45:16.418Z,0
2023-04-11T17:48:32.404Z,0
2023-04-11T17:51:59.610Z,0
2023-04-11T17:55:22.894Z,0
2023-04-11T17:58:48.166Z,0
2023-04-11T18:02:13.419Z,0
2023-04-11T18:05:38.610Z,0
2023-04-11T18:09:03.823Z,0
2023-04-11T18:12:29.400Z,0
2023-04-11T18:15:54.444Z,0
2023-04-11T18:19:19.562Z,0
2023-04-11T18:22:44.788Z,0
2023-04-11T18:26:10.034Z,0
2023-04-11T18:29:35.262Z,0
2023-04-11T18:33:00.569Z,0
2023-04-11T18:36:25.903Z,0
2023-04-11T18:39:50.927Z,0
2023-04-11T18:43:16.224Z,0
2023-04-11T18:46:41.452Z,0
2023-04-11T18:50:06.662Z,0
2023-04-11T18:53:31.865Z,0
2023-04-11T18:56:58.077Z,0
2023-04-11T19:00:22.293Z,0
2023-04-11T19:03:47.864Z,0
2023-04-11T19:07:12.846Z,0
2023-04-11T19:10:38.073Z,0
2023-04-11T19:14:03.410Z,0
2023-04-11T19:17:28.674Z,0
2023-04-11T19:20:53.849Z,0
2023-04-11T19:24:19.083Z,0
2023-04-11T19:27:44.262Z,0
2023-04-11T19:31:09.462Z,0
2023-04-11T19:34:34.690Z,0
2023-04-11T19:38:01.718Z,0
2023-04-11T19:41:25.119Z,0
2023-04-11T19:44:50.302Z,0
2023-04-11T19:48:15.694Z,0
2023-04-11T19:51:40.816Z,0
2023-04-11T19:55:06.026Z,0
2023-04-11T19:58:31.341Z,0
2023-04-11T20:01:56.610Z,0
2023-04-11T20:05:21.809Z,0
2023-04-11T20:08:47.027Z,0
2023-04-11T20:12:12.240Z,0
2023-04-11T20:15:37.490Z,0
2023-04-11T20:19:02.723Z,0
2023-04-11T20:22:27.924Z,0
2023-04-11T20:25:53.164Z,0
2023-04-11T20:29:18.473Z,0
2023-04-11T20:32:43.716Z,0
2023-04-11T20:36:08.925Z,0
2023-04-11T20:39:34.164Z,0
2023-04-11T20:42:59.353Z,0
2023-04-11T20:46:24.642Z,0
2023-04-11T20:49:49.932Z,0
2023-04-11T20:53:15.104Z,0
2023-04-11T20:56:40.309Z,0
2023-04-11T21:00:05.561Z,0
2023-04-11T21:03:30.872Z,0
2023-04-11T21:06:56.045Z,0
2023-04-11T21:10:21.256Z,0
2023-04-11T21:13:46.466Z,0
2023-04-11T21:17:11.692Z,0
2023-04-11T21:20:36.965Z,0
2023-04-11T21:24:02.252Z,0
2023-04-11T21:27:27.461Z,0
2023-04-11T21:30:52.710Z,0
2023-04-11T21:34:17.946Z,0
2023-04-11T21:37:43.157Z,0
2023-04-11T21:41:08.395Z,0
2023-04-11T21:44:33.586Z,0
2023-04-11T21:47:58.824Z,0
2023-04-11T21:51:24.024Z,0
2023-04-11T21:54:49.259Z,0
2023-04-11T21:58:22.192Z,0
2023-04-11T22:01:39.779Z,0
2023-04-11T22:05:06.742Z,0
2023-04-11T22:08:30.188Z,0
2023-04-11T22:11:55.387Z,0
2023-04-11T22:15:20.662Z,0
2023-04-11T22:18:45.841Z,0
2023-04-11T22:22:11.067Z,0
2023-04-11T22:25:36.304Z,0
2023-04-11T22:29:03.297Z,0
2023-04-11T22:32:26.785Z,0
2023-04-11T22:35:51.971Z,0
2023-04-11T22:39:17.219Z,0
2023-04-11T22:42:42.451Z,0
2023-04-11T22:46:07.723Z,0
2023-04-11T22:49:33.039Z,0
2023-04-11T22:52:58.133Z,0
2023-04-11T22:56:23.359Z,0
2023-04-11T22:59:48.561Z,0
2023-04-11T23:03:13.839Z,0
2023-04-11T23:06:39.067Z,0
2023-04-11T23:10:04.278Z,0
2023-04-11T23:13:29.521Z,0
2023-04-11T23:16:54.725Z,0
2023-04-11T23:20:19.919Z,0
2023-04-11T23:23:45.169Z,0
2023-04-11T23:27:10.378Z,0
2023-04-11T23:30:35.633Z,0
2023-04-11T23:34:01.151Z,0
2023-04-11T23:37:26.062Z,0
2023-04-11T23:40:51.311Z,0
2023-04-11T23:44:16.484Z,0
2023-04-11T23:47:41.724Z,0
2023-04-11T23:51:06.924Z,0
2023-04-11T23:54:32.118Z,0
2023-04-11T23:57:57.377Z,0
